createdAt,value
2022-10-04T00:02:31.893Z,10.23
2022-10-04T00:05:05.228Z,10.52
2022-10-04T00:07:41.006Z,13.95
2022-10-04T00:10:21.076Z,10.70
2022-10-04T00:12:52.452Z,9.90
2022-10-04T00:15:25.141Z,9.25
2022-10-04T00:18:10.800Z,11.32
2022-10-04T00:20:50.721Z,12.18
2022-10-04T00:23:24.212Z,9.50
2022-10-04T00:26:01.373Z,9.60
2022-10-04T00:28:37.750Z,10.18
2022-10-04T00:31:08.153Z,10.18
2022-10-04T00:33:51.385Z,10.23
2022-10-04T00:36:24.952Z,9.88
2022-10-04T00:39:07.407Z,11.90
2022-10-04T00:41:46.764Z,10.13
2022-10-04T00:44:47.138Z,9.60
2022-10-04T00:47:41.253Z,9.68
2022-10-04T00:50:18.782Z,10.55
2022-10-04T00:52:53.552Z,9.32
2022-10-04T00:55:34.570Z,9.68
2022-10-04T00:58:06.906Z,10.00
2022-10-04T01:00:36.390Z,9.85
2022-10-04T01:03:20.168Z,9.35
2022-10-04T01:05:54.590Z,9.80
2022-10-04T01:08:48.214Z,9.88
2022-10-04T01:11:21.354Z,10.48
2022-10-04T01:13:55.380Z,10.80
2022-10-04T01:16:33.700Z,10.10
2022-10-04T01:19:22.634Z,9.27
2022-10-04T01:22:05.152Z,10.93
2022-10-04T01:24:37.860Z,10.40
2022-10-04T01:27:27.537Z,10.00
2022-10-04T01:29:55.102Z,9.63
2022-10-04T01:32:23.226Z,10.77
2022-10-04T01:34:50.756Z,9.95
2022-10-04T01:37:18.797Z,10.35
2022-10-04T01:39:46.893Z,10.45
2022-10-04T01:42:30.184Z,10.23
2022-10-04T01:45:24.675Z,8.93
2022-10-04T01:48:15.938Z,13.15
2022-10-04T01:50:59.712Z,10.32
2022-10-04T01:53:34.980Z,9.32
2022-10-04T01:56:13.403Z,9.98
2022-10-04T01:58:45.496Z,10.02
2022-10-04T02:01:24.194Z,10.20
2022-10-04T02:04:19.875Z,10.90
2022-10-04T02:06:56.339Z,11.13
2022-10-04T02:09:30.545Z,9.77
2022-10-04T02:11:59.736Z,10.48
2022-10-04T02:14:39.252Z,10.48
2022-10-04T02:17:10.810Z,10.23
2022-10-04T02:19:41.643Z,11.63
2022-10-04T02:22:11.006Z,10.93
2022-10-04T02:24:43.011Z,10.10
2022-10-04T02:27:10.996Z,11.07
2022-10-04T02:29:38.796Z,11.60
2022-10-04T02:32:27.162Z,13.05
2022-10-04T02:34:56.517Z,10.82
2022-10-04T02:37:26.760Z,13.80
2022-10-04T02:39:58.154Z,11.40
2022-10-04T02:42:45.274Z,11.63
2022-10-04T02:45:33.482Z,14.43
2022-10-04T02:48:22.639Z,11.18
2022-10-04T02:50:53.870Z,12.52
2022-10-04T02:53:42.247Z,13.10
2022-10-04T02:56:12.252Z,12.95
2022-10-04T02:58:41.302Z,12.35
2022-10-04T03:01:18.013Z,11.93
2022-10-04T03:03:47.773Z,12.18
2022-10-04T03:06:19.366Z,12.35
2022-10-04T03:08:50.187Z,14.05
2022-10-04T03:11:22.718Z,11.23
2022-10-04T03:13:53.816Z,12.73
2022-10-04T03:16:21.889Z,13.02
2022-10-04T03:18:51.567Z,12.27
2022-10-04T03:21:21.868Z,11.82
2022-10-04T03:23:52.232Z,12.00
2022-10-04T03:26:43.581Z,12.68
2022-10-04T03:29:14.091Z,12.20
2022-10-04T03:31:50.096Z,12.10
2022-10-04T03:34:24.875Z,12.18
2022-10-04T03:36:56.333Z,12.57
2022-10-04T03:39:43.104Z,12.30
2022-10-04T03:42:34.760Z,12.95
2022-10-04T03:45:07.253Z,16.48
2022-10-04T03:47:41.141Z,14.55
2022-10-04T03:50:26.972Z,13.73
2022-10-04T03:52:58.898Z,13.55
2022-10-04T03:55:34.089Z,14.65
2022-10-04T03:58:02.657Z,13.63
2022-10-04T04:00:30.399Z,14.02
2022-10-04T04:03:05.915Z,13.85
2022-10-04T04:08:18.006Z,14.20
2022-10-04T04:10:53.263Z,14.90
2022-10-04T04:13:35.699Z,14.20
2022-10-04T04:16:05.634Z,13.60
2022-10-04T04:18:38.736Z,14.68
2022-10-04T04:21:08.169Z,12.70
2022-10-04T04:23:43.290Z,13.27
2022-10-04T04:26:31.464Z,14.05
2022-10-04T04:29:04.730Z,15.32
2022-10-04T04:31:38.002Z,14.45
2022-10-04T04:34:18.902Z,15.95
2022-10-04T04:36:46.699Z,14.98
2022-10-04T04:39:39.919Z,15.13
2022-10-04T04:42:10.543Z,16.23
2022-10-04T04:44:46.047Z,16.80
2022-10-04T04:47:27.300Z,14.75
2022-10-04T04:50:03.744Z,16.50
2022-10-04T04:52:32.747Z,15.98
2022-10-04T04:55:01.007Z,16.20
2022-10-04T04:57:28.766Z,16.98
2022-10-04T04:59:59.592Z,16.02
2022-10-04T05:02:37.783Z,17.45
2022-10-04T05:05:32.775Z,18.45
2022-10-04T05:08:27.939Z,15.63
2022-10-04T05:10:58.305Z,15.88
2022-10-04T05:13:40.138Z,16.95
2022-10-04T05:16:39.713Z,16.92
2022-10-04T05:19:14.116Z,16.30
2022-10-04T05:21:46.919Z,16.83
2022-10-04T05:24:33.287Z,16.30
2022-10-04T05:27:07.850Z,17.27
2022-10-04T05:29:39.330Z,16.43
2022-10-04T05:32:29.737Z,16.27
2022-10-04T05:34:57.936Z,16.17
2022-10-04T05:37:30.657Z,18.67
2022-10-04T05:40:15.984Z,18.13
2022-10-04T05:42:45.975Z,18.48
2022-10-04T05:45:23.493Z,16.88
2022-10-04T05:47:53.715Z,17.15
2022-10-04T05:50:30.091Z,16.13
2022-10-04T05:53:33.093Z,16.67
2022-10-04T05:56:06.484Z,17.83
2022-10-04T05:58:42.781Z,17.38
2022-10-04T06:01:20.684Z,17.33
2022-10-04T06:04:04.787Z,14.82
2022-10-04T06:06:48.717Z,15.50
2022-10-04T06:09:34.888Z,15.52
2022-10-04T06:12:13.404Z,18.73
2022-10-04T06:14:56.513Z,15.00
2022-10-04T06:17:26.749Z,15.93
2022-10-04T06:20:13.681Z,19.42
2022-10-04T06:22:54.809Z,16.88
2022-10-04T06:25:29.264Z,18.20
2022-10-04T06:28:21.050Z,17.70
2022-10-04T06:31:09.619Z,21.50
2022-10-04T06:33:59.176Z,18.60
2022-10-04T06:36:33.017Z,18.08
2022-10-04T06:39:32.988Z,16.25
2022-10-04T06:42:12.837Z,18.65
2022-10-04T06:45:01.815Z,18.83
2022-10-04T06:50:28.658Z,17.38
2022-10-04T06:53:10.887Z,19.50
2022-10-04T06:55:41.119Z,19.17
2022-10-04T06:58:11.483Z,18.55
2022-10-04T07:00:52.768Z,20.00
2022-10-04T07:03:32.244Z,22.23
2022-10-04T07:06:05.166Z,19.15
2022-10-04T07:08:50.114Z,19.48
2022-10-04T07:11:30.334Z,19.65
2022-10-04T07:14:05.990Z,21.00
2022-10-04T07:16:49.250Z,18.98
2022-10-04T07:19:39.090Z,18.50
2022-10-04T07:22:06.554Z,18.00
2022-10-04T07:25:11.757Z,17.52
2022-10-04T07:27:42.159Z,16.08
2022-10-04T07:30:20.802Z,15.48
2022-10-04T07:32:53.008Z,18.00
2022-10-04T07:35:33.927Z,15.90
2022-10-04T07:38:17.642Z,15.15
2022-10-04T07:41:49.643Z,14.57
2022-10-04T07:44:42.434Z,18.35
2022-10-04T07:47:21.725Z,14.27
2022-10-04T07:49:54.069Z,13.82
2022-10-04T07:52:46.060Z,13.00
2022-10-04T07:55:45.448Z,14.68
2022-10-04T07:58:27.054Z,12.57
2022-10-04T08:01:33.298Z,12.30
2022-10-04T08:04:20.153Z,11.93
2022-10-04T08:07:15.410Z,12.15
2022-10-04T08:10:34.615Z,11.68
2022-10-04T08:13:26.415Z,10.18
2022-10-04T08:15:59.482Z,9.68
2022-10-04T08:18:46.262Z,9.68
2022-10-04T08:22:03.061Z,9.60
2022-10-04T08:24:59.219Z,10.55
2022-10-04T08:27:39.762Z,10.77
2022-10-04T08:30:25.727Z,9.63
2022-10-04T08:33:02.033Z,8.95
2022-10-04T08:35:36.469Z,12.23
2022-10-04T08:38:42.434Z,8.52
2022-10-04T08:41:30.914Z,9.20
2022-10-04T08:44:17.014Z,8.68
2022-10-04T08:47:27.062Z,9.07
2022-10-04T08:50:06.245Z,7.40
2022-10-04T08:53:11.355Z,6.78
2022-10-04T08:56:17.631Z,5.82
2022-10-04T09:01:56.713Z,8.07
2022-10-04T09:04:51.231Z,6.43
2022-10-04T09:08:04.424Z,6.28
2022-10-04T09:10:59.554Z,7.68
2022-10-04T09:13:45.177Z,6.65
2022-10-04T09:16:24.844Z,6.32
2022-10-04T09:19:21.945Z,7.03
2022-10-04T09:22:25.400Z,6.13
2022-10-04T09:25:23.388Z,6.35
2022-10-04T09:28:09.978Z,6.90
2022-10-04T09:30:58.545Z,8.07
2022-10-04T09:33:48.087Z,8.45
2022-10-04T09:36:34.225Z,8.90
2022-10-04T09:39:30.011Z,9.20
2022-10-04T09:42:19.334Z,7.38
2022-10-04T09:45:13.512Z,9.10
2022-10-04T09:47:45.830Z,7.18
2022-10-04T09:50:35.692Z,7.30
2022-10-04T09:53:20.435Z,7.20
2022-10-04T09:56:27.084Z,6.18
2022-10-04T09:59:13.721Z,7.22
2022-10-04T10:02:13.024Z,6.82
2022-10-04T10:04:52.899Z,9.82
2022-10-04T10:07:32.315Z,6.30
2022-10-04T10:10:36.720Z,6.10
2022-10-04T10:13:43.011Z,6.47
2022-10-04T10:16:25.821Z,5.95
2022-10-04T10:19:13.086Z,8.00
2022-10-04T10:21:43.978Z,6.55
2022-10-04T10:24:37.983Z,5.50
2022-10-04T10:27:25.148Z,5.15
2022-10-04T10:30:11.030Z,5.68
2022-10-04T10:32:47.080Z,6.60
2022-10-04T10:35:32.900Z,5.15
2022-10-04T10:38:04.796Z,4.63
2022-10-04T10:40:41.828Z,5.32
2022-10-04T10:43:51.191Z,5.78
2022-10-04T10:46:43.027Z,5.57
2022-10-04T10:49:10.600Z,4.15
2022-10-04T10:51:55.880Z,5.25
2022-10-04T10:54:45.955Z,4.85
2022-10-04T10:57:48.286Z,6.68
2022-10-04T11:00:21.013Z,4.97
2022-10-04T11:03:14.591Z,3.95
2022-10-04T11:06:01.646Z,3.63
2022-10-04T11:08:58.680Z,6.55
2022-10-04T11:11:31.911Z,5.35
2022-10-04T11:14:33.176Z,5.78
2022-10-04T11:17:13.652Z,5.00
2022-10-04T11:19:55.875Z,4.78
2022-10-04T11:23:00.585Z,5.85
2022-10-04T11:25:45.899Z,4.78
2022-10-04T11:28:47.613Z,3.58
2022-10-04T11:31:32.697Z,5.18
2022-10-04T11:34:16.572Z,3.83
2022-10-04T11:36:56.345Z,3.50
2022-10-04T11:39:42.551Z,6.00
2022-10-04T11:42:30.466Z,3.63
2022-10-04T11:45:17.408Z,5.20
2022-10-04T11:47:44.742Z,4.05
2022-10-04T11:50:38.992Z,7.22
2022-10-04T11:53:52.951Z,4.93
2022-10-04T11:56:34.182Z,3.78
2022-10-04T11:59:21.033Z,3.83
2022-10-04T12:02:27.760Z,4.15
2022-10-04T12:05:24.896Z,5.80
2022-10-04T12:08:29.642Z,5.00
2022-10-04T12:11:21.917Z,5.07
2022-10-04T12:13:51.995Z,5.30
2022-10-04T12:16:45.672Z,6.32
2022-10-04T12:19:32.581Z,7.38
2022-10-04T12:22:02.746Z,4.30
2022-10-04T12:24:57.881Z,6.60
2022-10-04T12:27:39.133Z,4.72
2022-10-04T12:30:28.444Z,4.10
2022-10-04T12:33:11.330Z,5.80
2022-10-04T12:35:44.312Z,5.35
2022-10-04T12:38:27.736Z,5.82
2022-10-04T12:41:32.671Z,5.68
2022-10-04T12:44:18.518Z,6.25
2022-10-04T12:47:36.961Z,10.63
2022-10-04T12:50:30.344Z,8.20
2022-10-04T12:53:05.311Z,6.72
2022-10-04T12:58:21.776Z,7.75
2022-10-04T13:00:53.345Z,5.15
2022-10-04T13:03:23.466Z,4.53
2022-10-04T13:06:02.918Z,6.05
2022-10-04T13:08:51.857Z,7.28
2022-10-04T13:11:43.783Z,5.28
2022-10-04T13:14:36.000Z,6.25
2022-10-04T13:17:35.899Z,5.25
2022-10-04T13:20:45.502Z,6.05
2022-10-04T13:23:47.817Z,6.00
2022-10-04T13:26:33.229Z,7.30
2022-10-04T13:31:47.339Z,5.43
2022-10-04T13:34:36.550Z,7.60
2022-10-04T13:37:07.202Z,6.30
2022-10-04T13:39:46.631Z,7.28
2022-10-04T13:42:29.252Z,7.65
2022-10-04T13:45:21.573Z,7.13
2022-10-04T13:48:26.468Z,7.40
2022-10-04T13:51:02.366Z,7.00
2022-10-04T13:53:59.626Z,7.53
2022-10-04T13:57:04.540Z,10.48
2022-10-04T13:59:41.982Z,9.60
2022-10-04T14:02:46.340Z,7.45
2022-10-04T14:05:35.311Z,7.15
2022-10-04T14:08:14.939Z,6.40
2022-10-04T14:11:09.020Z,7.18
2022-10-04T14:13:43.104Z,6.50
2022-10-04T14:17:03.495Z,7.15
2022-10-04T14:19:50.172Z,6.85
2022-10-04T14:22:54.532Z,6.80
2022-10-04T14:25:34.031Z,10.07
2022-10-04T14:28:33.448Z,8.30
2022-10-04T14:31:01.923Z,7.95
2022-10-04T14:33:54.740Z,10.75
2022-10-04T14:37:03.719Z,8.15
2022-10-04T14:39:36.873Z,7.95
2022-10-04T14:42:33.418Z,8.88
2022-10-04T14:45:16.411Z,7.82
2022-10-04T14:48:08.067Z,7.68
2022-10-04T14:50:48.459Z,8.93
2022-10-04T14:53:22.131Z,7.43
2022-10-04T14:56:09.291Z,10.95
2022-10-04T14:58:58.142Z,8.10
2022-10-04T15:01:27.872Z,8.85
2022-10-04T15:03:58.182Z,8.60
2022-10-04T15:06:49.188Z,8.90
2022-10-04T15:09:38.236Z,9.10
2022-10-04T15:12:58.453Z,10.63
2022-10-04T15:15:32.559Z,9.02
2022-10-04T15:18:22.129Z,9.55
2022-10-04T15:20:52.594Z,11.25
2022-10-04T15:23:58.520Z,9.27
2022-10-04T15:26:32.294Z,8.30
2022-10-04T15:29:23.911Z,7.82
2022-10-04T15:32:21.885Z,8.00
2022-10-04T15:35:01.879Z,8.10
2022-10-04T15:37:29.551Z,10.20
2022-10-04T15:40:21.017Z,8.48
2022-10-04T15:43:18.055Z,9.88
2022-10-04T15:46:09.565Z,8.15
2022-10-04T15:48:51.963Z,7.85
2022-10-04T15:51:42.673Z,8.13
2022-10-04T15:55:02.528Z,8.70
2022-10-04T15:57:49.613Z,7.32
2022-10-04T16:00:27.511Z,8.40
2022-10-04T16:03:09.281Z,9.23
2022-10-04T16:05:44.112Z,9.18
2022-10-04T16:08:11.506Z,8.48
2022-10-04T16:11:17.005Z,8.15
2022-10-04T16:14:00.317Z,8.93
2022-10-04T16:16:48.515Z,10.27
2022-10-04T16:19:36.377Z,8.13
2022-10-04T16:22:15.848Z,8.43
2022-10-04T16:24:48.926Z,10.70
2022-10-04T16:27:37.747Z,10.10
2022-10-04T16:30:27.422Z,12.90
2022-10-04T16:32:58.446Z,13.27
2022-10-04T16:35:34.810Z,11.70
2022-10-04T16:38:17.059Z,9.95
2022-10-04T16:41:07.572Z,9.30
2022-10-04T16:43:39.619Z,10.25
2022-10-04T16:46:17.741Z,11.10
2022-10-04T16:48:58.910Z,9.90
2022-10-04T16:52:02.937Z,9.70
2022-10-04T16:54:45.476Z,8.20
2022-10-04T16:57:18.132Z,10.95
2022-10-04T16:59:49.717Z,11.32
2022-10-04T17:02:43.663Z,10.65
2022-10-04T17:05:33.074Z,9.48
2022-10-04T17:08:15.333Z,12.68
2022-10-04T17:10:48.717Z,11.85
2022-10-04T17:13:43.747Z,11.55
2022-10-04T17:16:30.082Z,12.30
2022-10-04T17:19:18.271Z,11.38
2022-10-04T17:22:20.370Z,10.40
2022-10-04T17:25:12.781Z,13.77
2022-10-04T17:27:56.405Z,9.85
2022-10-04T17:30:30.570Z,11.15
2022-10-04T17:33:24.123Z,9.35
2022-10-04T17:35:58.391Z,15.05
2022-10-04T17:38:50.690Z,9.38
2022-10-04T17:41:37.381Z,8.45
2022-10-04T17:44:24.262Z,7.55
2022-10-04T17:47:14.874Z,9.55
2022-10-04T17:50:20.977Z,9.35
2022-10-04T17:53:13.784Z,10.77
2022-10-04T17:55:48.122Z,8.55
2022-10-04T17:58:20.278Z,9.70
2022-10-04T18:00:53.503Z,10.85
2022-10-04T18:03:31.678Z,10.02
2022-10-04T18:06:05.237Z,9.60
2022-10-04T18:08:46.615Z,12.68
2022-10-04T18:11:17.387Z,11.32
2022-10-04T18:13:57.545Z,9.95
2022-10-04T18:16:32.472Z,9.35
2022-10-04T18:19:30.626Z,10.10
2022-10-04T18:22:11.498Z,10.93
2022-10-04T18:24:38.883Z,11.50
2022-10-04T18:27:23.926Z,12.60
2022-10-04T18:30:18.765Z,9.50
2022-10-04T18:32:48.865Z,9.45
2022-10-04T18:35:25.157Z,14.90
2022-10-04T18:37:58.144Z,11.25
2022-10-04T18:40:34.649Z,14.02
2022-10-04T18:43:02.176Z,10.48
2022-10-04T18:45:34.336Z,10.95
2022-10-04T18:48:16.089Z,10.05
2022-10-04T18:50:45.750Z,11.27
2022-10-04T18:53:46.023Z,11.82
2022-10-04T18:56:13.993Z,12.48
2022-10-04T18:59:18.677Z,13.13
2022-10-04T19:02:04.209Z,15.13
2022-10-04T19:05:06.834Z,13.13
2022-10-04T19:07:51.417Z,15.25
2022-10-04T19:10:33.288Z,12.18
2022-10-04T19:13:10.933Z,13.75
2022-10-04T19:15:38.890Z,11.43
2022-10-04T19:18:24.476Z,11.82
2022-10-04T19:21:07.308Z,11.48
2022-10-04T19:24:00.209Z,13.32
2022-10-04T19:26:37.493Z,12.35
2022-10-04T19:29:23.698Z,13.85
2022-10-04T19:32:02.465Z,11.20
2022-10-04T19:34:39.076Z,12.45
2022-10-04T19:37:13.943Z,13.00
2022-10-04T19:40:30.378Z,13.65
2022-10-04T19:43:20.808Z,14.63
2022-10-04T19:46:08.455Z,14.45
2022-10-04T19:48:46.414Z,13.82
2022-10-04T19:51:28.273Z,14.20
2022-10-04T19:54:16.305Z,11.77
2022-10-04T19:56:51.229Z,13.13
2022-10-04T19:59:32.596Z,13.70
2022-10-04T20:03:30.107Z,12.20
2022-10-04T20:24:08.684Z,12.85
2022-10-04T20:27:01.612Z,14.07
2022-10-04T20:29:38.078Z,14.30
2022-10-04T20:32:37.543Z,13.27
2022-10-04T20:35:15.121Z,12.38
2022-10-04T20:38:27.315Z,13.07
2022-10-04T20:41:11.423Z,12.60
2022-10-04T20:44:04.054Z,12.68
2022-10-04T20:46:39.674Z,11.98
2022-10-04T20:49:17.149Z,12.13
2022-10-04T20:51:51.047Z,12.93
2022-10-04T20:54:20.358Z,13.93
2022-10-04T20:56:50.412Z,12.90
2022-10-04T20:59:18.905Z,12.98
2022-10-04T21:02:02.527Z,11.38
2022-10-04T21:04:41.571Z,11.75
2022-10-04T21:07:15.372Z,12.50
2022-10-04T21:09:43.272Z,13.20
2022-10-04T21:12:35.583Z,15.52
2022-10-04T21:15:27.643Z,13.63
2022-10-04T21:18:09.778Z,13.50
2022-10-04T21:20:51.004Z,13.50
2022-10-04T21:23:30.450Z,13.35
2022-10-04T21:26:38.738Z,14.27
2022-10-04T21:29:06.301Z,13.23
2022-10-04T21:31:34.152Z,13.77
2022-10-04T21:34:02.044Z,13.90
2022-10-04T21:36:37.433Z,14.07
2022-10-04T21:39:15.140Z,14.55
2022-10-04T21:41:50.122Z,13.35
2022-10-04T21:44:24.284Z,14.00
2022-10-04T21:47:09.004Z,12.55
2022-10-04T21:49:50.840Z,14.55
2022-10-04T21:52:19.100Z,13.65
2022-10-04T21:54:46.940Z,14.32
2022-10-04T21:57:46.682Z,14.60
2022-10-04T22:00:14.361Z,14.52
2022-10-04T22:02:41.908Z,14.27
2022-10-04T22:05:09.784Z,14.38
2022-10-04T22:07:37.559Z,14.63
2022-10-04T22:10:05.692Z,16.48
2022-10-04T22:12:33.261Z,17.00
2022-10-04T22:15:00.948Z,14.88
2022-10-04T22:17:28.347Z,15.00
2022-10-04T22:19:55.828Z,14.40
2022-10-04T22:22:23.343Z,16.17
2022-10-04T22:24:50.813Z,16.85
2022-10-04T22:27:20.666Z,15.93
2022-10-04T22:29:49.022Z,14.90
2022-10-04T22:32:27.964Z,15.68
2022-10-04T22:35:12.279Z,15.45
2022-10-04T22:37:39.935Z,17.08
2022-10-04T22:40:14.515Z,15.38
2022-10-04T22:42:42.766Z,16.33
2022-10-04T22:45:20.881Z,15.52
2022-10-04T22:47:48.857Z,15.77
2022-10-04T22:50:33.850Z,16.27
2022-10-04T22:53:12.838Z,16.80
2022-10-04T22:55:41.486Z,16.20
2022-10-04T22:58:14.346Z,16.05
2022-10-04T23:00:43.179Z,16.00
2022-10-04T23:03:31.410Z,17.33
2022-10-04T23:06:00.817Z,16.75
2022-10-04T23:08:29.411Z,16.70
2022-10-04T23:10:59.473Z,16.13
2022-10-04T23:13:27.587Z,17.00
2022-10-04T23:16:00.345Z,16.90
2022-10-04T23:18:30.417Z,17.50
2022-10-04T23:21:01.785Z,17.77
2022-10-04T23:23:31.053Z,16.75
2022-10-04T23:25:58.712Z,17.48
2022-10-04T23:28:26.431Z,16.85
2022-10-04T23:31:10.911Z,17.25
2022-10-04T23:33:38.532Z,19.63
2022-10-04T23:36:11.843Z,16.83
2022-10-04T23:38:39.713Z,16.70
2022-10-04T23:41:12.148Z,19.15
2022-10-04T23:43:39.727Z,16.45
2022-10-04T23:46:14.985Z,17.10
2022-10-04T23:48:42.937Z,17.98
2022-10-04T23:51:13.389Z,17.23
2022-10-04T23:53:42.517Z,16.88
2022-10-04T23:56:21.619Z,17.75
2022-10-04T23:58:51.173Z,17.05
